sensor_id;sensor_type;location;lat;lon;timestamp;temperature;humidity
18101;DHT22;9177;49.156;8.142;2023-12-29T00:01:11;18.40;96.20
18101;DHT22;9177;49.156;8.142;2023-12-29T00:03:38;18.40;96.20
18101;DHT22;9177;49.156;8.142;2023-12-29T00:06:06;18.40;96.20
18101;DHT22;9177;49.156;8.142;2023-12-29T00:08:33;18.40;96.20
18101;DHT22;9177;49.156;8.142;2023-12-29T00:10:59;18.40;96.30
18101;DHT22;9177;49.156;8.142;2023-12-29T00:13:26;18.40;96.30
18101;DHT22;9177;49.156;8.142;2023-12-29T00:15:55;18.40;96.30
18101;DHT22;9177;49.156;8.142;2023-12-29T00:18:22;18.40;96.30
18101;DHT22;9177;49.156;8.142;2023-12-29T00:20:49;18.40;96.40
18101;DHT22;9177;49.156;8.142;2023-12-29T00:23:16;18.40;96.30
18101;DHT22;9177;49.156;8.142;2023-12-29T00:25:43;18.40;96.30
18101;DHT22;9177;49.156;8.142;2023-12-29T00:28:10;18.30;96.30
18101;DHT22;9177;49.156;8.142;2023-12-29T00:30:38;18.30;96.30
18101;DHT22;9177;49.156;8.142;2023-12-29T00:33:07;18.30;96.30
18101;DHT22;9177;49.156;8.142;2023-12-29T00:35:37;18.30;96.30
18101;DHT22;9177;49.156;8.142;2023-12-29T00:38:04;18.30;96.30
18101;DHT22;9177;49.156;8.142;2023-12-29T00:40:31;18.30;96.30
18101;DHT22;9177;49.156;8.142;2023-12-29T00:42:59;18.30;96.40
18101;DHT22;9177;49.156;8.142;2023-12-29T00:45:26;18.30;96.40
18101;DHT22;9177;49.156;8.142;2023-12-29T00:47:55;18.30;96.30
18101;DHT22;9177;49.156;8.142;2023-12-29T00:50:23;18.30;96.40
18101;DHT22;9177;49.156;8.142;2023-12-29T00:52:49;18.30;96.40
18101;DHT22;9177;49.156;8.142;2023-12-29T00:55:16;18.30;96.40
18101;DHT22;9177;49.156;8.142;2023-12-29T00:57:43;18.30;96.40
18101;DHT22;9177;49.156;8.142;2023-12-29T01:00:12;18.30;96.40
18101;DHT22;9177;49.156;8.142;2023-12-29T01:02:39;18.30;96.40
18101;DHT22;9177;49.156;8.142;2023-12-29T01:05:07;18.30;96.40
18101;DHT22;9177;49.156;8.142;2023-12-29T01:07:35;18.20;96.40
18101;DHT22;9177;49.156;8.142;2023-12-29T01:10:02;18.20;96.40
18101;DHT22;9177;49.156;8.142;2023-12-29T01:12:29;18.20;96.40
18101;DHT22;9177;49.156;8.142;2023-12-29T01:14:55;18.20;96.40
18101;DHT22;9177;49.156;8.142;2023-12-29T01:17:22;18.20;96.40
18101;DHT22;9177;49.156;8.142;2023-12-29T01:19:49;18.20;96.40
18101;DHT22;9177;49.156;8.142;2023-12-29T01:22:18;18.20;96.40
18101;DHT22;9177;49.156;8.142;2023-12-29T01:24:46;18.20;96.40
18101;DHT22;9177;49.156;8.142;2023-12-29T01:27:13;18.20;96.80
18101;DHT22;9177;49.156;8.142;2023-12-29T01:29:40;18.20;96.40
18101;DHT22;9177;49.156;8.142;2023-12-29T01:32:07;18.20;96.50
18101;DHT22;9177;49.156;8.142;2023-12-29T01:34:36;18.20;96.50
18101;DHT22;9177;49.156;8.142;2023-12-29T01:37:03;18.20;96.40
18101;DHT22;9177;49.156;8.142;2023-12-29T01:39:30;18.20;96.50
18101;DHT22;9177;49.156;8.142;2023-12-29T01:41:58;18.20;96.50
18101;DHT22;9177;49.156;8.142;2023-12-29T01:44:25;18.20;96.50
18101;DHT22;9177;49.156;8.142;2023-12-29T01:46:55;18.20;96.50
18101;DHT22;9177;49.156;8.142;2023-12-29T01:49:23;18.20;96.50
18101;DHT22;9177;49.156;8.142;2023-12-29T01:51:52;18.20;96.50
18101;DHT22;9177;49.156;8.142;2023-12-29T01:54:20;18.20;96.50
18101;DHT22;9177;49.156;8.142;2023-12-29T01:56:48;18.20;96.50
18101;DHT22;9177;49.156;8.142;2023-12-29T01:59:18;18.20;96.50
18101;DHT22;9177;49.156;8.142;2023-12-29T02:01:46;18.20;96.50
18101;DHT22;9177;49.156;8.142;2023-12-29T02:04:13;18.10;96.50
18101;DHT22;9177;49.156;8.142;2023-12-29T02:06:40;18.10;96.50
18101;DHT22;9177;49.156;8.142;2023-12-29T02:09:08;18.10;96.50
18101;DHT22;9177;49.156;8.142;2023-12-29T02:11:35;18.10;96.50
18101;DHT22;9177;49.156;8.142;2023-12-29T02:14:02;18.10;96.50
18101;DHT22;9177;49.156;8.142;2023-12-29T02:16:38;18.10;96.90
18101;DHT22;9177;49.156;8.142;2023-12-29T02:19:19;18.10;96.50
18101;DHT22;9177;49.156;8.142;2023-12-29T02:21:51;18.10;96.50
18101;DHT22;9177;49.156;8.142;2023-12-29T02:24:18;18.10;96.50
18101;DHT22;9177;49.156;8.142;2023-12-29T02:26:51;18.10;96.50
18101;DHT22;9177;49.156;8.142;2023-12-29T02:29:21;18.10;96.50
18101;DHT22;9177;49.156;8.142;2023-12-29T02:31:53;18.10;96.50
18101;DHT22;9177;49.156;8.142;2023-12-29T02:34:23;18.10;96.50
18101;DHT22;9177;49.156;8.142;2023-12-29T02:36:50;18.10;96.50
18101;DHT22;9177;49.156;8.142;2023-12-29T02:39:18;18.10;96.50
18101;DHT22;9177;49.156;8.142;2023-12-29T02:41:46;18.10;96.50
18101;DHT22;9177;49.156;8.142;2023-12-29T02:44:13;18.10;96.50
18101;DHT22;9177;49.156;8.142;2023-12-29T02:46:40;18.10;96.50
18101;DHT22;9177;49.156;8.142;2023-12-29T02:49:07;18.10;96.50
18101;DHT22;9177;49.156;8.142;2023-12-29T02:51:38;18.10;96.50
18101;DHT22;9177;49.156;8.142;2023-12-29T02:54:05;18.10;96.50
18101;DHT22;9177;49.156;8.142;2023-12-29T02:56:33;18.10;96.50
18101;DHT22;9177;49.156;8.142;2023-12-29T02:59:01;18.10;96.50
18101;DHT22;9177;49.156;8.142;2023-12-29T03:01:28;18.10;96.50
18101;DHT22;9177;49.156;8.142;2023-12-29T03:04:00;18.10;96.50
18101;DHT22;9177;49.156;8.142;2023-12-29T03:06:27;18.10;96.50
18101;DHT22;9177;49.156;8.142;2023-12-29T03:08:54;18.10;96.50
18101;DHT22;9177;49.156;8.142;2023-12-29T03:11:21;18.10;96.50
18101;DHT22;9177;49.156;8.142;2023-12-29T03:13:48;18.10;96.50
18101;DHT22;9177;49.156;8.142;2023-12-29T03:16:16;18.00;96.50
18101;DHT22;9177;49.156;8.142;2023-12-29T03:18:43;18.00;96.50
18101;DHT22;9177;49.156;8.142;2023-12-29T03:21:10;18.00;96.50
18101;DHT22;9177;49.156;8.142;2023-12-29T03:23:36;18.00;96.50
18101;DHT22;9177;49.156;8.142;2023-12-29T03:26:04;18.00;96.50
18101;DHT22;9177;49.156;8.142;2023-12-29T03:28:30;18.00;96.50
18101;DHT22;9177;49.156;8.142;2023-12-29T03:30:57;18.00;96.50
18101;DHT22;9177;49.156;8.142;2023-12-29T03:33:25;18.00;96.50
18101;DHT22;9177;49.156;8.142;2023-12-29T03:35:52;18.00;96.50
18101;DHT22;9177;49.156;8.142;2023-12-29T03:38:19;18.00;96.50
18101;DHT22;9177;49.156;8.142;2023-12-29T03:40:46;18.00;96.50
18101;DHT22;9177;49.156;8.142;2023-12-29T03:43:13;18.00;96.50
18101;DHT22;9177;49.156;8.142;2023-12-29T03:45:40;18.00;96.50
18101;DHT22;9177;49.156;8.142;2023-12-29T03:48:07;18.00;96.50
18101;DHT22;9177;49.156;8.142;2023-12-29T03:50:35;18.00;96.50
18101;DHT22;9177;49.156;8.142;2023-12-29T03:53:03;18.00;96.60
18101;DHT22;9177;49.156;8.142;2023-12-29T03:55:29;18.00;96.60
18101;DHT22;9177;49.156;8.142;2023-12-29T03:57:56;18.00;96.60
18101;DHT22;9177;49.156;8.142;2023-12-29T04:00:24;18.00;96.60
18101;DHT22;9177;49.156;8.142;2023-12-29T04:02:51;18.00;96.60
18101;DHT22;9177;49.156;8.142;2023-12-29T04:05:18;18.00;96.60
18101;DHT22;9177;49.156;8.142;2023-12-29T04:07:46;18.00;96.60
18101;DHT22;9177;49.156;8.142;2023-12-29T04:10:13;18.00;96.60
18101;DHT22;9177;49.156;8.142;2023-12-29T04:12:40;18.00;96.60
18101;DHT22;9177;49.156;8.142;2023-12-29T04:15:07;18.00;96.60
18101;DHT22;9177;49.156;8.142;2023-12-29T04:17:35;18.00;96.60
18101;DHT22;9177;49.156;8.142;2023-12-29T04:20:02;18.00;96.60
18101;DHT22;9177;49.156;8.142;2023-12-29T04:22:29;18.00;96.60
18101;DHT22;9177;49.156;8.142;2023-12-29T04:25:00;18.00;96.60
18101;DHT22;9177;49.156;8.142;2023-12-29T04:27:27;18.00;96.60
18101;DHT22;9177;49.156;8.142;2023-12-29T04:29:54;18.00;96.50
18101;DHT22;9177;49.156;8.142;2023-12-29T04:32:21;18.20;96.40
18101;DHT22;9177;49.156;8.142;2023-12-29T04:34:48;18.40;96.20
18101;DHT22;9177;49.156;8.142;2023-12-29T04:37:14;18.60;95.90
18101;DHT22;9177;49.156;8.142;2023-12-29T04:39:41;18.90;95.50
18101;DHT22;9177;49.156;8.142;2023-12-29T04:42:10;19.20;95.20
18101;DHT22;9177;49.156;8.142;2023-12-29T04:44:37;19.50;94.80
18101;DHT22;9177;49.156;8.142;2023-12-29T04:47:04;19.70;94.50
18101;DHT22;9177;49.156;8.142;2023-12-29T04:49:31;19.90;94.20
18101;DHT22;9177;49.156;8.142;2023-12-29T04:51:57;20.10;94.00
18101;DHT22;9177;49.156;8.142;2023-12-29T04:54:25;20.20;93.80
18101;DHT22;9177;49.156;8.142;2023-12-29T04:56:52;20.30;93.60
18101;DHT22;9177;49.156;8.142;2023-12-29T04:59:20;20.40;93.50
18101;DHT22;9177;49.156;8.142;2023-12-29T05:01:46;20.50;93.40
18101;DHT22;9177;49.156;8.142;2023-12-29T05:04:13;20.60;93.30
18101;DHT22;9177;49.156;8.142;2023-12-29T05:06:42;20.70;93.30
18101;DHT22;9177;49.156;8.142;2023-12-29T05:09:09;20.60;93.30
18101;DHT22;9177;49.156;8.142;2023-12-29T05:11:36;20.70;93.30
18101;DHT22;9177;49.156;8.142;2023-12-29T05:14:03;20.70;93.30
18101;DHT22;9177;49.156;8.142;2023-12-29T05:16:30;20.60;93.30
18101;DHT22;9177;49.156;8.142;2023-12-29T05:18:57;20.50;93.40
18101;DHT22;9177;49.156;8.142;2023-12-29T05:21:23;20.40;93.50
18101;DHT22;9177;49.156;8.142;2023-12-29T05:23:52;20.30;93.60
18101;DHT22;9177;49.156;8.142;2023-12-29T05:26:19;20.20;93.80
18101;DHT22;9177;49.156;8.142;2023-12-29T05:28:45;20.10;94.30
18101;DHT22;9177;49.156;8.142;2023-12-29T05:31:12;20.00;94.10
18101;DHT22;9177;49.156;8.142;2023-12-29T05:33:40;19.90;94.20
18101;DHT22;9177;49.156;8.142;2023-12-29T05:36:09;19.80;94.30
18101;DHT22;9177;49.156;8.142;2023-12-29T05:38:37;19.70;94.40
18101;DHT22;9177;49.156;8.142;2023-12-29T05:41:05;19.70;94.50
18101;DHT22;9177;49.156;8.142;2023-12-29T05:43:32;19.60;94.60
18101;DHT22;9177;49.156;8.142;2023-12-29T05:46:00;19.50;95.10
18101;DHT22;9177;49.156;8.142;2023-12-29T05:48:27;19.50;94.80
18101;DHT22;9177;49.156;8.142;2023-12-29T05:50:55;19.40;94.80
18101;DHT22;9177;49.156;8.142;2023-12-29T05:53:22;19.40;94.90
18101;DHT22;9177;49.156;8.142;2023-12-29T05:55:49;19.30;95.00
18101;DHT22;9177;49.156;8.142;2023-12-29T05:58:16;19.30;95.00
18101;DHT22;9177;49.156;8.142;2023-12-29T06:00:43;19.30;95.10
18101;DHT22;9177;49.156;8.142;2023-12-29T06:03:10;19.20;95.20
18101;DHT22;9177;49.156;8.142;2023-12-29T06:05:38;19.20;95.20
18101;DHT22;9177;49.156;8.142;2023-12-29T06:08:07;19.10;95.20
18101;DHT22;9177;49.156;8.142;2023-12-29T06:10:35;19.10;95.30
18101;DHT22;9177;49.156;8.142;2023-12-29T06:13:03;19.10;95.40
18101;DHT22;9177;49.156;8.142;2023-12-29T06:15:30;19.10;95.40
18101;DHT22;9177;49.156;8.142;2023-12-29T06:17:57;19.00;95.40
18101;DHT22;9177;49.156;8.142;2023-12-29T06:20:24;19.00;95.40
18101;DHT22;9177;49.156;8.142;2023-12-29T06:22:51;19.00;95.40
18101;DHT22;9177;49.156;8.142;2023-12-29T06:25:19;19.00;95.40
18101;DHT22;9177;49.156;8.142;2023-12-29T06:27:46;19.10;95.40
18101;DHT22;9177;49.156;8.142;2023-12-29T06:30:14;19.10;95.30
18101;DHT22;9177;49.156;8.142;2023-12-29T06:32:41;19.20;95.30
18101;DHT22;9177;49.156;8.142;2023-12-29T06:35:08;19.20;95.20
18101;DHT22;9177;49.156;8.142;2023-12-29T06:37:36;19.30;95.10
18101;DHT22;9177;49.156;8.142;2023-12-29T06:40:04;19.40;95.00
18101;DHT22;9177;49.156;8.142;2023-12-29T06:42:32;19.40;94.90
18101;DHT22;9177;49.156;8.142;2023-12-29T06:44:59;19.50;94.80
18101;DHT22;9177;49.156;8.142;2023-12-29T06:47:26;19.60;94.70
18101;DHT22;9177;49.156;8.142;2023-12-29T06:49:54;19.60;94.60
18101;DHT22;9177;49.156;8.142;2023-12-29T06:52:20;19.70;94.60
18101;DHT22;9177;49.156;8.142;2023-12-29T06:54:47;19.70;94.50
18101;DHT22;9177;49.156;8.142;2023-12-29T06:57:17;19.80;94.40
18101;DHT22;9177;49.156;8.142;2023-12-29T06:59:45;19.80;94.80
18101;DHT22;9177;49.156;8.142;2023-12-29T07:02:12;19.80;94.30
18101;DHT22;9177;49.156;8.142;2023-12-29T07:04:41;19.80;94.70
18101;DHT22;9177;49.156;8.142;2023-12-29T07:07:09;19.90;94.50
18101;DHT22;9177;49.156;8.142;2023-12-29T07:09:38;19.80;94.70
18101;DHT22;9177;49.156;8.142;2023-12-29T07:12:06;19.80;94.70
18101;DHT22;9177;49.156;8.142;2023-12-29T07:14:33;19.80;94.40
18101;DHT22;9177;49.156;8.142;2023-12-29T07:17:02;19.70;94.40
18101;DHT22;9177;49.156;8.142;2023-12-29T07:19:29;19.70;94.50
18101;DHT22;9177;49.156;8.142;2023-12-29T07:22:02;19.70;94.50
18101;DHT22;9177;49.156;8.142;2023-12-29T07:24:30;19.70;94.50
18101;DHT22;9177;49.156;8.142;2023-12-29T07:26:57;19.60;94.50
18101;DHT22;9177;49.156;8.142;2023-12-29T07:29:24;19.60;94.60
18101;DHT22;9177;49.156;8.142;2023-12-29T07:31:51;19.60;94.60
18101;DHT22;9177;49.156;8.142;2023-12-29T07:34:20;19.50;94.60
18101;DHT22;9177;49.156;8.142;2023-12-29T07:36:47;19.50;94.70
18101;DHT22;9177;49.156;8.142;2023-12-29T07:39:14;19.50;94.70
18101;DHT22;9177;49.156;8.142;2023-12-29T07:41:41;19.40;95.00
18101;DHT22;9177;49.156;8.142;2023-12-29T07:44:09;19.50;94.80
18101;DHT22;9177;49.156;8.142;2023-12-29T07:46:37;19.40;94.80
18101;DHT22;9177;49.156;8.142;2023-12-29T07:49:04;19.40;94.80
18101;DHT22;9177;49.156;8.142;2023-12-29T07:51:32;19.40;94.80
18101;DHT22;9177;49.156;8.142;2023-12-29T07:53:59;19.40;94.80
18101;DHT22;9177;49.156;8.142;2023-12-29T07:56:26;19.40;94.80
18101;DHT22;9177;49.156;8.142;2023-12-29T07:58:53;19.40;94.80
18101;DHT22;9177;49.156;8.142;2023-12-29T08:01:20;19.30;94.80
18101;DHT22;9177;49.156;8.142;2023-12-29T08:03:46;19.30;94.80
18101;DHT22;9177;49.156;8.142;2023-12-29T08:06:14;19.30;94.80
18101;DHT22;9177;49.156;8.142;2023-12-29T08:08:42;19.30;94.90
18101;DHT22;9177;49.156;8.142;2023-12-29T08:11:13;19.30;94.90
18101;DHT22;9177;49.156;8.142;2023-12-29T08:13:40;19.30;95.00
18101;DHT22;9177;49.156;8.142;2023-12-29T08:16:07;19.30;95.00
18101;DHT22;9177;49.156;8.142;2023-12-29T08:18:34;19.20;94.90
18101;DHT22;9177;49.156;8.142;2023-12-29T08:21:01;19.20;94.90
18101;DHT22;9177;49.156;8.142;2023-12-29T08:23:28;19.30;94.90
18101;DHT22;9177;49.156;8.142;2023-12-29T08:25:57;19.30;94.90
18101;DHT22;9177;49.156;8.142;2023-12-29T08:28:25;19.30;94.90
18101;DHT22;9177;49.156;8.142;2023-12-29T08:30:52;19.30;94.90
18101;DHT22;9177;49.156;8.142;2023-12-29T08:33:19;19.30;94.80
18101;DHT22;9177;49.156;8.142;2023-12-29T08:35:46;19.30;94.80
18101;DHT22;9177;49.156;8.142;2023-12-29T08:38:13;19.40;94.90
18101;DHT22;9177;49.156;8.142;2023-12-29T08:40:40;19.40;94.80
18101;DHT22;9177;49.156;8.142;2023-12-29T08:43:08;19.40;94.80
18101;DHT22;9177;49.156;8.142;2023-12-29T08:45:35;19.40;94.80
18101;DHT22;9177;49.156;8.142;2023-12-29T08:48:04;19.40;94.80
18101;DHT22;9177;49.156;8.142;2023-12-29T08:50:31;19.40;94.80
18101;DHT22;9177;49.156;8.142;2023-12-29T08:52:58;19.40;94.80
18101;DHT22;9177;49.156;8.142;2023-12-29T08:55:25;19.40;94.80
18101;DHT22;9177;49.156;8.142;2023-12-29T08:57:51;19.50;94.80
18101;DHT22;9177;49.156;8.142;2023-12-29T09:00:20;19.50;94.70
18101;DHT22;9177;49.156;8.142;2023-12-29T09:02:47;19.50;94.70
18101;DHT22;9177;49.156;8.142;2023-12-29T09:05:14;19.50;94.70
18101;DHT22;9177;49.156;8.142;2023-12-29T09:07:41;19.50;94.60
18101;DHT22;9177;49.156;8.142;2023-12-29T09:10:08;19.50;94.70
18101;DHT22;9177;49.156;8.142;2023-12-29T09:12:37;19.50;94.60
18101;DHT22;9177;49.156;8.142;2023-12-29T09:15:05;19.50;94.60
18101;DHT22;9177;49.156;8.142;2023-12-29T09:17:33;19.50;94.60
18101;DHT22;9177;49.156;8.142;2023-12-29T09:20:00;19.50;94.60
18101;DHT22;9177;49.156;8.142;2023-12-29T09:22:27;19.50;94.60
18101;DHT22;9177;49.156;8.142;2023-12-29T09:24:54;19.60;94.50
18101;DHT22;9177;49.156;8.142;2023-12-29T09:27:21;19.60;94.50
18101;DHT22;9177;49.156;8.142;2023-12-29T09:29:49;19.60;94.50
18101;DHT22;9177;49.156;8.142;2023-12-29T09:32:16;19.60;94.40
18101;DHT22;9177;49.156;8.142;2023-12-29T09:34:44;19.70;94.40
18101;DHT22;9177;49.156;8.142;2023-12-29T09:37:11;19.70;94.40
18101;DHT22;9177;49.156;8.142;2023-12-29T09:39:38;19.80;94.30
18101;DHT22;9177;49.156;8.142;2023-12-29T09:42:05;19.80;94.30
18101;DHT22;9177;49.156;8.142;2023-12-29T09:44:35;19.80;94.20
18101;DHT22;9177;49.156;8.142;2023-12-29T09:47:03;19.80;94.20
18101;DHT22;9177;49.156;8.142;2023-12-29T09:49:37;19.90;94.20
18101;DHT22;9177;49.156;8.142;2023-12-29T09:52:07;19.90;94.20
18101;DHT22;9177;49.156;8.142;2023-12-29T09:54:36;19.90;94.10
18101;DHT22;9177;49.156;8.142;2023-12-29T09:57:04;20.00;94.10
18101;DHT22;9177;49.156;8.142;2023-12-29T09:59:32;19.90;94.10
18101;DHT22;9177;49.156;8.142;2023-12-29T10:02:02;19.90;94.10
18101;DHT22;9177;49.156;8.142;2023-12-29T10:04:29;19.90;94.20
18101;DHT22;9177;49.156;8.142;2023-12-29T10:06:57;19.90;94.20
18101;DHT22;9177;49.156;8.142;2023-12-29T10:09:31;19.90;94.20
18101;DHT22;9177;49.156;8.142;2023-12-29T10:12:01;19.90;94.10
18101;DHT22;9177;49.156;8.142;2023-12-29T10:14:36;19.90;94.20
18101;DHT22;9177;49.156;8.142;2023-12-29T10:17:10;19.90;94.10
18101;DHT22;9177;49.156;8.142;2023-12-29T10:19:40;20.00;94.20
18101;DHT22;9177;49.156;8.142;2023-12-29T10:22:11;19.90;94.10
18101;DHT22;9177;49.156;8.142;2023-12-29T10:24:43;20.00;94.10
18101;DHT22;9177;49.156;8.142;2023-12-29T10:27:11;19.90;94.10
18101;DHT22;9177;49.156;8.142;2023-12-29T10:29:38;20.00;94.10
18101;DHT22;9177;49.156;8.142;2023-12-29T10:32:05;20.00;94.10
18101;DHT22;9177;49.156;8.142;2023-12-29T10:34:32;20.00;94.10
18101;DHT22;9177;49.156;8.142;2023-12-29T10:37:00;20.00;94.10
18101;DHT22;9177;49.156;8.142;2023-12-29T10:39:29;20.00;94.20
18101;DHT22;9177;49.156;8.142;2023-12-29T10:42:07;20.00;94.10
18101;DHT22;9177;49.156;8.142;2023-12-29T10:44:35;20.00;94.10
18101;DHT22;9177;49.156;8.142;2023-12-29T10:47:11;20.00;94.10
18101;DHT22;9177;49.156;8.142;2023-12-29T10:49:40;20.00;94.20
18101;DHT22;9177;49.156;8.142;2023-12-29T10:52:11;20.00;94.20
18101;DHT22;9177;49.156;8.142;2023-12-29T10:54:40;20.00;94.20
18101;DHT22;9177;49.156;8.142;2023-12-29T10:57:10;20.00;94.10
18101;DHT22;9177;49.156;8.142;2023-12-29T10:59:37;20.10;94.00
18101;DHT22;9177;49.156;8.142;2023-12-29T11:02:04;20.10;93.90
18101;DHT22;9177;49.156;8.142;2023-12-29T11:04:33;20.20;93.90
18101;DHT22;9177;49.156;8.142;2023-12-29T11:07:03;20.10;93.90
18101;DHT22;9177;49.156;8.142;2023-12-29T11:09:31;20.10;93.90
18101;DHT22;9177;49.156;8.142;2023-12-29T11:12:01;20.10;94.00
18101;DHT22;9177;49.156;8.142;2023-12-29T11:14:30;20.10;94.00
18101;DHT22;9177;49.156;8.142;2023-12-29T11:16:58;20.00;94.00
18101;DHT22;9177;49.156;8.142;2023-12-29T11:19:25;20.00;94.00
18101;DHT22;9177;49.156;8.142;2023-12-29T11:21:54;20.00;94.10
18101;DHT22;9177;49.156;8.142;2023-12-29T11:24:21;20.00;94.10
18101;DHT22;9177;49.156;8.142;2023-12-29T11:26:49;20.00;94.10
18101;DHT22;9177;49.156;8.142;2023-12-29T11:29:16;20.00;94.10
18101;DHT22;9177;49.156;8.142;2023-12-29T11:31:46;20.00;94.10
18101;DHT22;9177;49.156;8.142;2023-12-29T11:34:19;19.90;94.10
18101;DHT22;9177;49.156;8.142;2023-12-29T11:36:47;19.90;94.20
18101;DHT22;9177;49.156;8.142;2023-12-29T11:39:20;19.90;94.20
18101;DHT22;9177;49.156;8.142;2023-12-29T11:42:03;19.90;94.20
18101;DHT22;9177;49.156;8.142;2023-12-29T11:44:30;19.80;94.20
18101;DHT22;9177;49.156;8.142;2023-12-29T11:47:00;19.80;94.20
18101;DHT22;9177;49.156;8.142;2023-12-29T11:50:00;19.80;94.20
18101;DHT22;9177;49.156;8.142;2023-12-29T11:52:34;19.80;94.20
18101;DHT22;9177;49.156;8.142;2023-12-29T11:55:08;19.80;94.20
18101;DHT22;9177;49.156;8.142;2023-12-29T11:57:35;19.80;94.20
18101;DHT22;9177;49.156;8.142;2023-12-29T12:00:03;19.80;94.20
18101;DHT22;9177;49.156;8.142;2023-12-29T12:02:32;19.80;94.20
18101;DHT22;9177;49.156;8.142;2023-12-29T12:04:59;19.80;94.20
18101;DHT22;9177;49.156;8.142;2023-12-29T12:07:57;19.80;94.20
18101;DHT22;9177;49.156;8.142;2023-12-29T12:10:32;19.80;94.30
18101;DHT22;9177;49.156;8.142;2023-12-29T12:12:59;19.80;94.30
18101;DHT22;9177;49.156;8.142;2023-12-29T12:15:33;19.70;94.30
18101;DHT22;9177;49.156;8.142;2023-12-29T12:18:03;19.70;94.30
18101;DHT22;9177;49.156;8.142;2023-12-29T12:20:32;19.70;94.30
18101;DHT22;9177;49.156;8.142;2023-12-29T12:23:01;19.70;94.30
18101;DHT22;9177;49.156;8.142;2023-12-29T12:25:30;19.70;94.40
18101;DHT22;9177;49.156;8.142;2023-12-29T12:28:01;19.70;94.40
18101;DHT22;9177;49.156;8.142;2023-12-29T12:30:33;19.70;94.40
18101;DHT22;9177;49.156;8.142;2023-12-29T12:33:03;19.70;94.40
18101;DHT22;9177;49.156;8.142;2023-12-29T12:35:30;19.70;94.30
18101;DHT22;9177;49.156;8.142;2023-12-29T12:40:36;19.70;94.30
18101;DHT22;9177;49.156;8.142;2023-12-29T12:43:04;19.70;94.30
18101;DHT22;9177;49.156;8.142;2023-12-29T12:45:34;19.70;94.30
18101;DHT22;9177;49.156;8.142;2023-12-29T12:48:11;19.70;94.30
18101;DHT22;9177;49.156;8.142;2023-12-29T12:50:42;19.70;94.30
18101;DHT22;9177;49.156;8.142;2023-12-29T12:53:11;19.70;94.30
18101;DHT22;9177;49.156;8.142;2023-12-29T12:55:40;19.70;94.20
18101;DHT22;9177;49.156;8.142;2023-12-29T12:58:08;19.70;94.20
18101;DHT22;9177;49.156;8.142;2023-12-29T13:00:35;19.70;94.20
18101;DHT22;9177;49.156;8.142;2023-12-29T13:03:05;19.70;94.20
18101;DHT22;9177;49.156;8.142;2023-12-29T13:05:35;19.70;94.20
18101;DHT22;9177;49.156;8.142;2023-12-29T13:08:03;19.70;94.20
18101;DHT22;9177;49.156;8.142;2023-12-29T13:10:31;19.80;94.20
18101;DHT22;9177;49.156;8.142;2023-12-29T13:12:58;19.80;94.20
18101;DHT22;9177;49.156;8.142;2023-12-29T13:15:25;19.80;94.20
18101;DHT22;9177;49.156;8.142;2023-12-29T13:17:52;19.70;94.10
18101;DHT22;9177;49.156;8.142;2023-12-29T13:20:21;19.80;94.20
18101;DHT22;9177;49.156;8.142;2023-12-29T13:22:49;19.70;94.10
18101;DHT22;9177;49.156;8.142;2023-12-29T13:25:18;19.70;94.10
18101;DHT22;9177;49.156;8.142;2023-12-29T13:27:46;19.70;94.10
18101;DHT22;9177;49.156;8.142;2023-12-29T13:30:14;19.80;94.20
18101;DHT22;9177;49.156;8.142;2023-12-29T13:32:41;19.70;94.10
18101;DHT22;9177;49.156;8.142;2023-12-29T13:35:16;19.70;94.50
18101;DHT22;9177;49.156;8.142;2023-12-29T13:37:50;19.70;94.10
18101;DHT22;9177;49.156;8.142;2023-12-29T13:40:23;19.70;94.50
18101;DHT22;9177;49.156;8.142;2023-12-29T13:42:56;19.70;94.10
18101;DHT22;9177;49.156;8.142;2023-12-29T13:45:24;19.70;94.10
18101;DHT22;9177;49.156;8.142;2023-12-29T13:47:51;19.70;94.10
18101;DHT22;9177;49.156;8.142;2023-12-29T13:50:19;19.70;94.10
18101;DHT22;9177;49.156;8.142;2023-12-29T13:52:47;19.70;94.10
18101;DHT22;9177;49.156;8.142;2023-12-29T13:55:21;19.80;94.10
18101;DHT22;9177;49.156;8.142;2023-12-29T13:57:48;19.80;94.10
18101;DHT22;9177;49.156;8.142;2023-12-29T14:00:17;19.80;94.10
18101;DHT22;9177;49.156;8.142;2023-12-29T14:02:48;19.80;94.00
18101;DHT22;9177;49.156;8.142;2023-12-29T14:05:20;19.80;94.00
18101;DHT22;9177;49.156;8.142;2023-12-29T14:07:55;19.80;94.00
18101;DHT22;9177;49.156;8.142;2023-12-29T14:10:29;19.80;94.00
18101;DHT22;9177;49.156;8.142;2023-12-29T14:13:04;19.80;94.00
18101;DHT22;9177;49.156;8.142;2023-12-29T14:15:34;19.80;94.00
18101;DHT22;9177;49.156;8.142;2023-12-29T14:18:05;19.80;94.00
18101;DHT22;9177;49.156;8.142;2023-12-29T14:20:36;19.90;94.00
18101;DHT22;9177;49.156;8.142;2023-12-29T14:23:05;19.90;94.00
18101;DHT22;9177;49.156;8.142;2023-12-29T14:25:33;19.90;94.00
18101;DHT22;9177;49.156;8.142;2023-12-29T14:28:01;19.90;94.00
18101;DHT22;9177;49.156;8.142;2023-12-29T14:30:28;19.90;94.00
18101;DHT22;9177;49.156;8.142;2023-12-29T14:32:57;19.90;94.00
18101;DHT22;9177;49.156;8.142;2023-12-29T14:35:24;19.80;94.00
18101;DHT22;9177;49.156;8.142;2023-12-29T14:37:51;19.90;94.40
18101;DHT22;9177;49.156;8.142;2023-12-29T14:40:19;19.80;94.00
18101;DHT22;9177;49.156;8.142;2023-12-29T14:42:46;19.80;94.00
18101;DHT22;9177;49.156;8.142;2023-12-29T14:45:13;19.80;94.00
18101;DHT22;9177;49.156;8.142;2023-12-29T14:47:40;19.80;94.10
18101;DHT22;9177;49.156;8.142;2023-12-29T14:50:08;19.80;94.00
18101;DHT22;9177;49.156;8.142;2023-12-29T14:52:35;19.80;94.00
18101;DHT22;9177;49.156;8.142;2023-12-29T14:55:02;19.80;94.00
18101;DHT22;9177;49.156;8.142;2023-12-29T14:57:30;19.80;94.00
18101;DHT22;9177;49.156;8.142;2023-12-29T14:59:57;19.80;94.00
18101;DHT22;9177;49.156;8.142;2023-12-29T15:02:24;19.80;94.10
18101;DHT22;9177;49.156;8.142;2023-12-29T15:04:50;19.80;94.10
18101;DHT22;9177;49.156;8.142;2023-12-29T15:07:17;19.80;94.10
18101;DHT22;9177;49.156;8.142;2023-12-29T15:09:44;19.80;94.10
18101;DHT22;9177;49.156;8.142;2023-12-29T15:12:11;19.80;94.10
18101;DHT22;9177;49.156;8.142;2023-12-29T15:14:39;19.80;94.10
18101;DHT22;9177;49.156;8.142;2023-12-29T15:17:07;19.80;94.10
18101;DHT22;9177;49.156;8.142;2023-12-29T15:19:33;19.80;94.10
18101;DHT22;9177;49.156;8.142;2023-12-29T15:22:02;19.70;94.10
18101;DHT22;9177;49.156;8.142;2023-12-29T15:24:29;19.80;94.10
18101;DHT22;9177;49.156;8.142;2023-12-29T15:26:55;19.80;94.10
18101;DHT22;9177;49.156;8.142;2023-12-29T15:29:23;19.80;94.10
18101;DHT22;9177;49.156;8.142;2023-12-29T15:31:51;19.80;94.10
18101;DHT22;9177;49.156;8.142;2023-12-29T15:34:18;19.80;94.00
18101;DHT22;9177;49.156;8.142;2023-12-29T15:36:48;19.80;94.10
18101;DHT22;9177;49.156;8.142;2023-12-29T15:39:14;19.80;94.10
18101;DHT22;9177;49.156;8.142;2023-12-29T15:41:41;19.70;94.00
18101;DHT22;9177;49.156;8.142;2023-12-29T15:44:08;19.70;94.00
18101;DHT22;9177;49.156;8.142;2023-12-29T15:46:35;19.70;94.00
18101;DHT22;9177;49.156;8.142;2023-12-29T15:49:03;19.70;94.10
18101;DHT22;9177;49.156;8.142;2023-12-29T15:51:30;19.70;94.10
18101;DHT22;9177;49.156;8.142;2023-12-29T15:53:57;19.70;94.10